sensor_id;sensor_type;location;lat;lon;timestamp;pressure;altitude;pressure_sealevel;temperature;humidity
74242;BME280;62599;49.146;10.426;2023-05-14T00:01:10;95776.75;;;6.65;100.00
74242;BME280;62599;49.146;10.426;2023-05-14T00:03:36;95774.69;;;6.62;100.00
74242;BME280;62599;49.146;10.426;2023-05-14T00:06:03;95778.75;;;6.59;100.00
74242;BME280;62599;49.146;10.426;2023-05-14T00:08:31;95774.78;;;6.57;100.00
74242;BME280;62599;49.146;10.426;2023-05-14T00:10:56;95768.47;;;6.53;100.00
74242;BME280;62599;49.146;10.426;2023-05-14T00:13:22;95764.81;;;6.48;100.00
74242;BME280;62599;49.146;10.426;2023-05-14T00:15:47;95768.88;;;6.46;100.00
74242;BME280;62599;49.146;10.426;2023-05-14T00:18:12;95767.63;;;6.43;100.00
74242;BME280;62599;49.146;10.426;2023-05-14T00:20:38;95764.75;;;6.40;100.00
74242;BME280;62599;49.146;10.426;2023-05-14T00:23:03;95758.63;;;6.39;100.00
74242;BME280;62599;49.146;10.426;2023-05-14T00:25:28;95766.13;;;6.37;100.00
74242;BME280;62599;49.146;10.426;2023-05-14T00:27:54;95758.06;;;6.29;100.00
74242;BME280;62599;49.146;10.426;2023-05-14T00:30:20;95751.53;;;6.21;100.00
74242;BME280;62599;49.146;10.426;2023-05-14T00:32:45;95755.41;;;6.15;100.00
74242;BME280;62599;49.146;10.426;2023-05-14T00:35:10;95750.78;;;6.07;100.00
74242;BME280;62599;49.146;10.426;2023-05-14T00:37:36;95755.56;;;5.96;100.00
74242;BME280;62599;49.146;10.426;2023-05-14T00:40:02;95757.50;;;5.90;100.00
74242;BME280;62599;49.146;10.426;2023-05-14T00:42:27;95751.59;;;5.93;100.00
74242;BME280;62599;49.146;10.426;2023-05-14T00:44:53;95759.69;;;5.88;100.00
74242;BME280;62599;49.146;10.426;2023-05-14T00:47:18;95755.41;;;5.87;100.00
74242;BME280;62599;49.146;10.426;2023-05-14T00:49:44;95757.91;;;5.97;100.00
74242;BME280;62599;49.146;10.426;2023-05-14T00:52:10;95762.66;;;6.00;100.00
74242;BME280;62599;49.146;10.426;2023-05-14T00:54:35;95761.88;;;6.00;100.00
74242;BME280;62599;49.146;10.426;2023-05-14T00:57:02;95753.66;;;5.96;100.00
74242;BME280;62599;49.146;10.426;2023-05-14T00:59:27;95755.38;;;5.92;100.00
74242;BME280;62599;49.146;10.426;2023-05-14T01:01:53;95753.72;;;5.91;100.00
74242;BME280;62599;49.146;10.426;2023-05-14T01:04:18;95760.75;;;5.87;100.00
74242;BME280;62599;49.146;10.426;2023-05-14T01:09:49;95747.53;;;5.82;100.00
74242;BME280;62599;49.146;10.426;2023-05-14T01:12:57;95759.31;;;5.81;100.00
74242;BME280;62599;49.146;10.426;2023-05-14T01:15:20;95751.38;;;5.76;100.00
74242;BME280;62599;49.146;10.426;2023-05-14T01:17:46;95753.47;;;5.79;100.00
74242;BME280;62599;49.146;10.426;2023-05-14T01:20:13;95751.97;;;5.87;100.00
74242;BME280;62599;49.146;10.426;2023-05-14T01:22:39;95745.03;;;5.86;100.00
74242;BME280;62599;49.146;10.426;2023-05-14T01:25:05;95745.94;;;5.81;100.00
74242;BME280;62599;49.146;10.426;2023-05-14T01:27:40;95745.13;;;5.80;100.00
74242;BME280;62599;49.146;10.426;2023-05-14T01:32:53;95753.34;;;5.84;100.00
74242;BME280;62599;49.146;10.426;2023-05-14T01:35:26;95754.34;;;5.88;100.00
74242;BME280;62599;49.146;10.426;2023-05-14T01:38:00;95750.03;;;5.92;100.00
74242;BME280;62599;49.146;10.426;2023-05-14T01:40:26;95754.06;;;6.03;100.00
74242;BME280;62599;49.146;10.426;2023-05-14T01:42:53;95747.97;;;6.12;100.00
74242;BME280;62599;49.146;10.426;2023-05-14T01:45:22;95749.94;;;6.20;100.00
74242;BME280;62599;49.146;10.426;2023-05-14T01:47:48;95742.00;;;6.29;100.00
74242;BME280;62599;49.146;10.426;2023-05-14T01:50:13;95746.44;;;6.33;100.00
74242;BME280;62599;49.146;10.426;2023-05-14T01:52:39;95748.94;;;6.30;100.00
74242;BME280;62599;49.146;10.426;2023-05-14T01:55:05;95745.28;;;6.25;100.00
74242;BME280;62599;49.146;10.426;2023-05-14T01:57:33;95742.03;;;6.15;100.00
74242;BME280;62599;49.146;10.426;2023-05-14T01:59:58;95740.09;;;6.07;100.00
74242;BME280;62599;49.146;10.426;2023-05-14T02:02:24;95737.31;;;5.98;100.00
74242;BME280;62599;49.146;10.426;2023-05-14T02:04:49;95734.75;;;5.93;100.00
74242;BME280;62599;49.146;10.426;2023-05-14T02:07:15;95739.97;;;5.84;100.00
74242;BME280;62599;49.146;10.426;2023-05-14T02:09:40;95739.19;;;5.84;100.00
74242;BME280;62599;49.146;10.426;2023-05-14T02:12:09;95740.88;;;5.79;100.00
74242;BME280;62599;49.146;10.426;2023-05-14T02:14:36;95734.75;;;5.79;100.00
74242;BME280;62599;49.146;10.426;2023-05-14T02:17:01;95736.31;;;5.80;100.00
74242;BME280;62599;49.146;10.426;2023-05-14T02:19:28;95731.75;;;5.80;100.00
74242;BME280;62599;49.146;10.426;2023-05-14T02:21:53;95731.75;;;5.80;100.00
74242;BME280;62599;49.146;10.426;2023-05-14T02:24:18;95730.38;;;5.83;100.00
74242;BME280;62599;49.146;10.426;2023-05-14T02:26:43;95729.28;;;5.84;100.00
74242;BME280;62599;49.146;10.426;2023-05-14T02:29:09;95737.50;;;5.88;100.00
74242;BME280;62599;49.146;10.426;2023-05-14T02:31:34;95724.06;;;5.93;100.00
74242;BME280;62599;49.146;10.426;2023-05-14T02:34:02;95722.75;;;6.04;100.00
74242;BME280;62599;49.146;10.426;2023-05-14T02:36:27;95730.16;;;6.21;100.00
74242;BME280;62599;49.146;10.426;2023-05-14T02:38:53;95727.03;;;6.27;100.00
74242;BME280;62599;49.146;10.426;2023-05-14T02:41:18;95725.50;;;6.35;100.00
74242;BME280;62599;49.146;10.426;2023-05-14T02:43:44;95726.50;;;6.39;100.00
74242;BME280;62599;49.146;10.426;2023-05-14T02:46:10;95727.31;;;6.40;100.00
74242;BME280;62599;49.146;10.426;2023-05-14T02:48:36;95730.63;;;6.45;100.00
74242;BME280;62599;49.146;10.426;2023-05-14T02:51:01;95732.88;;;6.52;100.00
74242;BME280;62599;49.146;10.426;2023-05-14T02:53:27;95726.16;;;6.55;100.00
74242;BME280;62599;49.146;10.426;2023-05-14T02:55:52;95722.69;;;6.54;100.00
74242;BME280;62599;49.146;10.426;2023-05-14T02:58:18;95726.50;;;6.62;100.00
74242;BME280;62599;49.146;10.426;2023-05-14T03:00:43;95723.41;;;6.68;100.00
74242;BME280;62599;49.146;10.426;2023-05-14T03:03:08;95716.97;;;6.69;100.00
74242;BME280;62599;49.146;10.426;2023-05-14T03:05:34;95716.53;;;6.76;100.00
74242;BME280;62599;49.146;10.426;2023-05-14T03:07:59;95724.75;;;6.80;100.00
74242;BME280;62599;49.146;10.426;2023-05-14T03:10:25;95731.06;;;6.84;100.00
74242;BME280;62599;49.146;10.426;2023-05-14T03:12:50;95729.81;;;6.90;100.00
74242;BME280;62599;49.146;10.426;2023-05-14T03:15:16;95728.59;;;6.96;100.00
74242;BME280;62599;49.146;10.426;2023-05-14T03:17:41;95728.16;;;7.03;100.00
74242;BME280;62599;49.146;10.426;2023-05-14T03:20:07;95726.47;;;7.07;100.00
74242;BME280;62599;49.146;10.426;2023-05-14T03:22:32;95727.75;;;7.09;100.00
74242;BME280;62599;49.146;10.426;2023-05-14T03:24:58;95730.09;;;7.11;100.00
74242;BME280;62599;49.146;10.426;2023-05-14T03:27:23;95724.75;;;7.11;100.00
74242;BME280;62599;49.146;10.426;2023-05-14T03:29:49;95725.69;;;7.15;100.00
74242;BME280;62599;49.146;10.426;2023-05-14T03:32:14;95728.56;;;7.18;100.00
74242;BME280;62599;49.146;10.426;2023-05-14T03:34:40;95722.91;;;7.20;100.00
74242;BME280;62599;49.146;10.426;2023-05-14T03:37:05;95720.22;;;7.20;100.00
74242;BME280;62599;49.146;10.426;2023-05-14T03:39:31;95735.38;;;7.24;100.00
74242;BME280;62599;49.146;10.426;2023-05-14T03:41:56;95722.28;;;7.23;100.00
74242;BME280;62599;49.146;10.426;2023-05-14T03:44:23;95728.91;;;7.26;100.00
74242;BME280;62599;49.146;10.426;2023-05-14T03:46:49;95729.22;;;7.24;100.00
74242;BME280;62599;49.146;10.426;2023-05-14T03:49:14;95731.59;;;7.26;100.00
74242;BME280;62599;49.146;10.426;2023-05-14T03:51:39;95728.59;;;7.27;100.00
74242;BME280;62599;49.146;10.426;2023-05-14T03:54:05;95728.00;;;7.30;100.00
74242;BME280;62599;49.146;10.426;2023-05-14T03:56:30;95729.25;;;7.33;100.00
74242;BME280;62599;49.146;10.426;2023-05-14T03:58:55;95734.78;;;7.36;100.00
74242;BME280;62599;49.146;10.426;2023-05-14T04:01:21;95732.28;;;7.40;100.00
74242;BME280;62599;49.146;10.426;2023-05-14T04:03:46;95730.09;;;7.42;100.00
74242;BME280;62599;49.146;10.426;2023-05-14T04:06:11;95729.31;;;7.41;100.00
74242;BME280;62599;49.146;10.426;2023-05-14T04:08:37;95731.66;;;7.43;100.00
74242;BME280;62599;49.146;10.426;2023-05-14T04:11:02;95724.41;;;7.43;100.00
74242;BME280;62599;49.146;10.426;2023-05-14T04:13:28;95730.25;;;7.45;100.00
74242;BME280;62599;49.146;10.426;2023-05-14T04:15:53;95728.03;;;7.47;100.00
74242;BME280;62599;49.146;10.426;2023-05-14T04:18:18;95717.31;;;7.47;100.00
74242;BME280;62599;49.146;10.426;2023-05-14T04:20:47;95722.84;;;7.51;100.00
74242;BME280;62599;49.146;10.426;2023-05-14T04:23:12;95722.06;;;7.51;100.00
74242;BME280;62599;49.146;10.426;2023-05-14T04:25:37;95718.94;;;7.48;100.00
74242;BME280;62599;49.146;10.426;2023-05-14T04:28:03;95721.59;;;7.48;100.00
74242;BME280;62599;49.146;10.426;2023-05-14T04:30:28;95719.88;;;7.53;100.00
74242;BME280;62599;49.146;10.426;2023-05-14T04:32:54;95718.63;;;7.59;100.00
74242;BME280;62599;49.146;10.426;2023-05-14T04:35:20;95713.91;;;7.64;100.00
74242;BME280;62599;49.146;10.426;2023-05-14T04:37:45;95715.38;;;7.79;100.00
74242;BME280;62599;49.146;10.426;2023-05-14T04:40:10;95719.94;;;7.87;100.00
74242;BME280;62599;49.146;10.426;2023-05-14T04:42:36;95711.78;;;7.92;100.00
74242;BME280;62599;49.146;10.426;2023-05-14T04:45:02;95709.09;;;8.01;100.00
74242;BME280;62599;49.146;10.426;2023-05-14T04:47:29;95710.81;;;8.06;100.00
74242;BME280;62599;49.146;10.426;2023-05-14T04:49:55;95704.66;;;8.05;100.00
74242;BME280;62599;49.146;10.426;2023-05-14T04:52:21;95707.06;;;8.07;100.00
74242;BME280;62599;49.146;10.426;2023-05-14T04:54:47;95706.56;;;8.05;100.00
74242;BME280;62599;49.146;10.426;2023-05-14T04:57:12;95710.19;;;8.09;100.00
74242;BME280;62599;49.146;10.426;2023-05-14T04:59:37;95708.47;;;8.13;100.00
74242;BME280;62599;49.146;10.426;2023-05-14T05:02:03;95714.00;;;8.16;100.00
74242;BME280;62599;49.146;10.426;2023-05-14T05:04:28;95718.28;;;8.17;100.00
74242;BME280;62599;49.146;10.426;2023-05-14T05:06:53;95706.25;;;8.24;100.00
74242;BME280;62599;49.146;10.426;2023-05-14T05:09:22;95707.38;;;8.23;100.00
74242;BME280;62599;49.146;10.426;2023-05-14T05:11:47;95705.47;;;8.23;100.00
74242;BME280;62599;49.146;10.426;2023-05-14T05:14:13;95712.56;;;8.28;100.00
74242;BME280;62599;49.146;10.426;2023-05-14T05:16:38;95703.47;;;8.37;100.00
74242;BME280;62599;49.146;10.426;2023-05-14T05:19:03;95706.59;;;8.48;100.00
74242;BME280;62599;49.146;10.426;2023-05-14T05:21:29;95701.38;;;8.60;100.00
74242;BME280;62599;49.146;10.426;2023-05-14T05:23:54;95702.94;;;8.70;100.00
74242;BME280;62599;49.146;10.426;2023-05-14T05:26:20;95691.72;;;8.77;100.00
74242;BME280;62599;49.146;10.426;2023-05-14T05:28:46;95703.56;;;8.84;100.00
74242;BME280;62599;49.146;10.426;2023-05-14T05:31:12;95697.56;;;8.87;100.00
74242;BME280;62599;49.146;10.426;2023-05-14T05:33:38;95699.09;;;9.06;100.00
74242;BME280;62599;49.146;10.426;2023-05-14T05:36:06;95701.88;;;9.27;100.00
74242;BME280;62599;49.146;10.426;2023-05-14T05:38:31;95699.41;;;9.43;100.00
74242;BME280;62599;49.146;10.426;2023-05-14T05:40:57;95695.75;;;9.47;100.00
74242;BME280;62599;49.146;10.426;2023-05-14T05:43:22;95689.41;;;9.52;100.00
74242;BME280;62599;49.146;10.426;2023-05-14T05:45:47;95689.03;;;9.62;100.00
74242;BME280;62599;49.146;10.426;2023-05-14T05:48:13;95690.69;;;9.75;100.00
74242;BME280;62599;49.146;10.426;2023-05-14T05:50:38;95688.34;;;9.95;100.00
74242;BME280;62599;49.146;10.426;2023-05-14T05:53:03;95689.50;;;10.15;100.00
74242;BME280;62599;49.146;10.426;2023-05-14T05:55:29;95688.94;;;10.30;100.00
74242;BME280;62599;49.146;10.426;2023-05-14T05:57:54;95685.31;;;10.26;100.00
74242;BME280;62599;49.146;10.426;2023-05-14T06:00:20;95684.25;;;10.18;100.00
74242;BME280;62599;49.146;10.426;2023-05-14T06:02:46;95683.09;;;10.28;100.00
74242;BME280;62599;49.146;10.426;2023-05-14T06:05:11;95682.88;;;10.54;100.00
74242;BME280;62599;49.146;10.426;2023-05-14T06:07:37;95691.38;;;10.77;100.00
74242;BME280;62599;49.146;10.426;2023-05-14T06:10:03;95692.66;;;10.92;100.00
74242;BME280;62599;49.146;10.426;2023-05-14T06:12:30;95691.34;;;11.10;100.00
74242;BME280;62599;49.146;10.426;2023-05-14T06:14:56;95690.25;;;11.23;100.00
74242;BME280;62599;49.146;10.426;2023-05-14T06:17:23;95694.31;;;11.42;100.00
74242;BME280;62599;49.146;10.426;2023-05-14T06:19:50;95692.28;;;11.51;100.00
74242;BME280;62599;49.146;10.426;2023-05-14T06:22:16;95690.25;;;11.60;100.00
74242;BME280;62599;49.146;10.426;2023-05-14T06:24:42;95704.44;;;11.69;100.00
74242;BME280;62599;49.146;10.426;2023-05-14T06:27:08;95698.81;;;11.50;98.96
74242;BME280;62599;49.146;10.426;2023-05-14T06:29:33;95700.25;;;11.72;100.00
74242;BME280;62599;49.146;10.426;2023-05-14T06:32:02;95696.81;;;11.96;100.00
74242;BME280;62599;49.146;10.426;2023-05-14T06:34:29;95690.25;;;11.72;95.54
74242;BME280;62599;49.146;10.426;2023-05-14T06:36:55;95696.34;;;11.94;96.64
74242;BME280;62599;49.146;10.426;2023-05-14T06:39:21;95692.97;;;12.09;95.62
74242;BME280;62599;49.146;10.426;2023-05-14T06:41:46;95690.03;;;11.90;93.42
74242;BME280;62599;49.146;10.426;2023-05-14T06:44:11;95689.03;;;11.82;94.07
74242;BME280;62599;49.146;10.426;2023-05-14T06:46:37;95699.03;;;12.06;93.81
74242;BME280;62599;49.146;10.426;2023-05-14T06:49:02;95701.50;;;12.11;91.62
74242;BME280;62599;49.146;10.426;2023-05-14T06:51:28;95693.28;;;12.48;91.18
74242;BME280;62599;49.146;10.426;2023-05-14T06:53:54;95701.38;;;12.60;88.67
74242;BME280;62599;49.146;10.426;2023-05-14T06:56:20;95702.72;;;12.54;89.53
74242;BME280;62599;49.146;10.426;2023-05-14T06:58:46;95705.63;;;12.61;89.26
74242;BME280;62599;49.146;10.426;2023-05-14T07:01:20;95701.16;;;12.81;89.75
74242;BME280;62599;49.146;10.426;2023-05-14T07:03:46;95709.44;;;12.88;87.85
74242;BME280;62599;49.146;10.426;2023-05-14T07:06:14;95704.41;;;12.87;87.08
74242;BME280;62599;49.146;10.426;2023-05-14T07:08:39;95708.19;;;12.98;88.10
74242;BME280;62599;49.146;10.426;2023-05-14T07:11:05;95710.47;;;13.12;85.94
74242;BME280;62599;49.146;10.426;2023-05-14T07:13:30;95707.81;;;13.28;86.45
74242;BME280;62599;49.146;10.426;2023-05-14T07:15:56;95707.81;;;12.99;84.94
74242;BME280;62599;49.146;10.426;2023-05-14T07:18:22;95707.16;;;12.74;86.51
74242;BME280;62599;49.146;10.426;2023-05-14T07:20:48;95701.75;;;12.46;88.36
74242;BME280;62599;49.146;10.426;2023-05-14T07:23:13;95698.00;;;12.51;88.44
74242;BME280;62599;49.146;10.426;2023-05-14T07:25:39;95702.63;;;12.50;88.18
74242;BME280;62599;49.146;10.426;2023-05-14T07:28:05;95699.97;;;12.66;88.39
74242;BME280;62599;49.146;10.426;2023-05-14T07:30:31;95699.00;;;12.87;87.98
74242;BME280;62599;49.146;10.426;2023-05-14T07:32:56;95701.81;;;13.06;86.36
74242;BME280;62599;49.146;10.426;2023-05-14T07:35:22;95691.56;;;13.28;83.58
74242;BME280;62599;49.146;10.426;2023-05-14T07:37:47;95699.00;;;13.62;83.53
74242;BME280;62599;49.146;10.426;2023-05-14T07:40:13;95689.56;;;13.72;82.54
74242;BME280;62599;49.146;10.426;2023-05-14T07:42:38;95699.16;;;13.85;82.34
74242;BME280;62599;49.146;10.426;2023-05-14T07:45:04;95694.47;;;14.17;81.01
74242;BME280;62599;49.146;10.426;2023-05-14T07:47:29;95694.53;;;14.40;80.48
74242;BME280;62599;49.146;10.426;2023-05-14T07:49:58;95689.81;;;14.73;78.99
74242;BME280;62599;49.146;10.426;2023-05-14T07:52:23;95688.34;;;14.98;77.83
74242;BME280;62599;49.146;10.426;2023-05-14T07:54:50;95684.69;;;15.10;75.83
74242;BME280;62599;49.146;10.426;2023-05-14T07:57:16;95686.38;;;14.76;76.27
74242;BME280;62599;49.146;10.426;2023-05-14T07:59:41;95681.13;;;14.63;75.86
74242;BME280;62599;49.146;10.426;2023-05-14T08:02:06;95679.47;;;14.78;77.11
74242;BME280;62599;49.146;10.426;2023-05-14T08:04:38;95693.00;;;15.21;75.74
74242;BME280;62599;49.146;10.426;2023-05-14T08:07:04;95686.97;;;15.54;74.35
74242;BME280;62599;49.146;10.426;2023-05-14T08:09:29;95685.72;;;15.25;73.22
74242;BME280;62599;49.146;10.426;2023-05-14T08:11:55;95689.78;;;14.92;73.83
74242;BME280;62599;49.146;10.426;2023-05-14T08:14:20;95688.78;;;14.81;74.10
74242;BME280;62599;49.146;10.426;2023-05-14T08:16:46;95690.00;;;14.83;75.59
74242;BME280;62599;49.146;10.426;2023-05-14T08:19:11;95686.84;;;15.01;75.57
74242;BME280;62599;49.146;10.426;2023-05-14T08:21:37;95683.44;;;14.84;74.73
74242;BME280;62599;49.146;10.426;2023-05-14T08:24:02;95686.63;;;14.32;74.91
74242;BME280;62599;49.146;10.426;2023-05-14T08:26:28;95681.06;;;14.44;76.35
74242;BME280;62599;49.146;10.426;2023-05-14T08:28:53;95669.97;;;14.68;75.90
74242;BME280;62599;49.146;10.426;2023-05-14T08:31:19;95681.50;;;15.04;73.65
74242;BME280;62599;49.146;10.426;2023-05-14T08:33:44;95679.81;;;15.19;73.56
74242;BME280;62599;49.146;10.426;2023-05-14T08:36:10;95668.00;;;14.88;72.64
74242;BME280;62599;49.146;10.426;2023-05-14T08:38:35;95668.47;;;14.71;73.69
74242;BME280;62599;49.146;10.426;2023-05-14T08:41:00;95664.03;;;14.82;73.98
74242;BME280;62599;49.146;10.426;2023-05-14T08:43:31;95663.50;;;14.54;74.78
74242;BME280;62599;49.146;10.426;2023-05-14T08:46:00;95665.50;;;14.41;75.98
74242;BME280;62599;49.146;10.426;2023-05-14T08:48:31;95661.75;;;14.84;76.20
74242;BME280;62599;49.146;10.426;2023-05-14T08:50:58;95664.13;;;15.32;74.49
74242;BME280;62599;49.146;10.426;2023-05-14T08:53:24;95652.25;;;15.40;70.80
74242;BME280;62599;49.146;10.426;2023-05-14T08:55:50;95656.41;;;15.80;70.64
74242;BME280;62599;49.146;10.426;2023-05-14T08:58:18;95661.94;;;15.87;70.55
74242;BME280;62599;49.146;10.426;2023-05-14T09:00:43;95654.00;;;16.01;68.88
74242;BME280;62599;49.146;10.426;2023-05-14T09:03:09;95662.00;;;16.51;66.42
74242;BME280;62599;49.146;10.426;2023-05-14T09:05:36;95658.47;;;16.17;67.20
74242;BME280;62599;49.146;10.426;2023-05-14T09:08:01;95655.03;;;16.20;66.77
74242;BME280;62599;49.146;10.426;2023-05-14T09:10:27;95657.34;;;15.91;66.94
74242;BME280;62599;49.146;10.426;2023-05-14T09:12:52;95657.59;;;15.59;69.20
74242;BME280;62599;49.146;10.426;2023-05-14T09:15:17;95644.28;;;15.51;68.19
74242;BME280;62599;49.146;10.426;2023-05-14T09:17:43;95658.25;;;15.26;69.03
74242;BME280;62599;49.146;10.426;2023-05-14T09:20:14;95652.38;;;15.47;68.96
74242;BME280;62599;49.146;10.426;2023-05-14T09:22:40;95655.81;;;15.44;69.37
74242;BME280;62599;49.146;10.426;2023-05-14T09:25:08;95647.19;;;15.61;68.09
74242;BME280;62599;49.146;10.426;2023-05-14T09:27:36;95641.13;;;15.98;68.31
74242;BME280;62599;49.146;10.426;2023-05-14T09:30:11;95639.25;;;16.32;65.76
74242;BME280;62599;49.146;10.426;2023-05-14T09:32:42;95626.38;;;16.59;63.37
74242;BME280;62599;49.146;10.426;2023-05-14T09:35:17;95629.25;;;17.11;64.27
74242;BME280;62599;49.146;10.426;2023-05-14T09:37:45;95626.66;;;16.84;62.10
74242;BME280;62599;49.146;10.426;2023-05-14T09:40:12;95623.81;;;17.59;60.55
74242;BME280;62599;49.146;10.426;2023-05-14T09:42:38;95625.19;;;17.83;58.54
74242;BME280;62599;49.146;10.426;2023-05-14T09:45:08;95617.97;;;17.57;56.79
74242;BME280;62599;49.146;10.426;2023-05-14T09:47:34;95625.38;;;17.60;59.13
74242;BME280;62599;49.146;10.426;2023-05-14T09:49:59;95616.59;;;16.85;60.10
74242;BME280;62599;49.146;10.426;2023-05-14T09:52:25;95613.47;;;16.53;63.70
74242;BME280;62599;49.146;10.426;2023-05-14T09:54:51;95625.31;;;16.34;63.73
74242;BME280;62599;49.146;10.426;2023-05-14T09:57:18;95620.16;;;15.69;63.37
74242;BME280;62599;49.146;10.426;2023-05-14T09:59:44;95613.16;;;15.94;63.34
74242;BME280;62599;49.146;10.426;2023-05-14T10:05:07;95609.56;;;15.63;64.70
74242;BME280;62599;49.146;10.426;2023-05-14T10:08:04;95607.94;;;15.59;64.74
74242;BME280;62599;49.146;10.426;2023-05-14T10:11:30;95607.19;;;15.85;64.32
74242;BME280;62599;49.146;10.426;2023-05-14T10:14:02;95606.31;;;15.77;62.65
74242;BME280;62599;49.146;10.426;2023-05-14T10:16:37;95599.88;;;15.89;62.06
74242;BME280;62599;49.146;10.426;2023-05-14T10:19:08;95602.72;;;16.00;61.41
74242;BME280;62599;49.146;10.426;2023-05-14T10:21:35;95610.56;;;16.35;62.74
74242;BME280;62599;49.146;10.426;2023-05-14T10:24:02;95607.56;;;16.47;61.68
74242;BME280;62599;49.146;10.426;2023-05-14T10:26:29;95604.94;;;16.21;62.36
74242;BME280;62599;49.146;10.426;2023-05-14T10:28:56;95610.19;;;15.76;63.90
74242;BME280;62599;49.146;10.426;2023-05-14T10:31:23;95610.53;;;16.01;63.46
74242;BME280;62599;49.146;10.426;2023-05-14T10:36:58;95593.81;;;16.67;61.37
74242;BME280;62599;49.146;10.426;2023-05-14T10:39:57;95595.25;;;16.57;61.51
74242;BME280;62599;49.146;10.426;2023-05-14T10:42:26;95597.97;;;16.57;61.58
74242;BME280;62599;49.146;10.426;2023-05-14T10:44:57;95592.84;;;16.52;62.53
74242;BME280;62599;49.146;10.426;2023-05-14T10:47:24;95587.63;;;16.36;61.30
74242;BME280;62599;49.146;10.426;2023-05-14T10:49:53;95589.19;;;16.37;62.14
74242;BME280;62599;49.146;10.426;2023-05-14T10:52:20;95589.00;;;16.53;62.45
74242;BME280;62599;49.146;10.426;2023-05-14T10:54:54;95580.06;;;16.90;61.52
74242;BME280;62599;49.146;10.426;2023-05-14T10:57:21;95579.03;;;17.56;59.67
74242;BME280;62599;49.146;10.426;2023-05-14T10:59:51;95578.34;;;17.67;57.54
74242;BME280;62599;49.146;10.426;2023-05-14T11:02:31;95584.50;;;17.56;56.50
74242;BME280;62599;49.146;10.426;2023-05-14T11:04:58;95587.16;;;17.49;56.25
74242;BME280;62599;49.146;10.426;2023-05-14T11:07:27;95583.69;;;17.52;55.88
74242;BME280;62599;49.146;10.426;2023-05-14T11:09:59;95576.22;;;17.42;55.51
74242;BME280;62599;49.146;10.426;2023-05-14T11:12:25;95581.97;;;17.30;58.17
74242;BME280;62599;49.146;10.426;2023-05-14T11:15:09;95581.53;;;16.80;57.26
74242;BME280;62599;49.146;10.426;2023-05-14T11:17:40;95569.69;;;16.65;59.14
74242;BME280;62599;49.146;10.426;2023-05-14T11:20:24;95565.34;;;17.42;60.23
74242;BME280;62599;49.146;10.426;2023-05-14T11:23:16;95565.44;;;17.56;57.66
74242;BME280;62599;49.146;10.426;2023-05-14T11:25:56;95550.31;;;17.66;56.14
74242;BME280;62599;49.146;10.426;2023-05-14T11:29:04;95560.97;;;17.89;56.31
74242;BME280;62599;49.146;10.426;2023-05-14T11:32:09;95560.31;;;18.14;55.22
74242;BME280;62599;49.146;10.426;2023-05-14T11:35:08;95568.00;;;17.90;56.13
74242;BME280;62599;49.146;10.426;2023-05-14T11:37:35;95565.38;;;17.49;57.45
74242;BME280;62599;49.146;10.426;2023-05-14T11:40:01;95572.78;;;17.01;58.00
74242;BME280;62599;49.146;10.426;2023-05-14T11:42:27;95572.16;;;17.18;57.03
74242;BME280;62599;49.146;10.426;2023-05-14T11:44:52;95565.44;;;17.05;56.15
74242;BME280;62599;49.146;10.426;2023-05-14T11:47:21;95555.06;;;17.18;57.03
74242;BME280;62599;49.146;10.426;2023-05-14T11:49:47;95555.88;;;17.22;56.73
74242;BME280;62599;49.146;10.426;2023-05-14T11:52:14;95564.41;;;17.79;56.26
74242;BME280;62599;49.146;10.426;2023-05-14T11:54:41;95566.09;;;17.94;53.60
74242;BME280;62599;49.146;10.426;2023-05-14T11:57:12;95566.81;;;17.88;53.36
74242;BME280;62599;49.146;10.426;2023-05-14T11:59:38;95564.34;;;17.72;53.90
74242;BME280;62599;49.146;10.426;2023-05-14T12:02:04;95561.19;;;17.63;53.61
74242;BME280;62599;49.146;10.426;2023-05-14T12:04:30;95560.97;;;17.89;54.60
74242;BME280;62599;49.146;10.426;2023-05-14T12:06:58;95562.91;;;17.30;55.60
74242;BME280;62599;49.146;10.426;2023-05-14T12:09:24;95562.41;;;16.35;57.97
74242;BME280;62599;49.146;10.426;2023-05-14T12:11:53;95563.22;;;16.40;58.75
74242;BME280;62599;49.146;10.426;2023-05-14T12:17:32;95560.59;;;16.84;57.66
74242;BME280;62599;49.146;10.426;2023-05-14T12:19:58;95555.00;;;16.73;58.44
74242;BME280;62599;49.146;10.426;2023-05-14T12:22:24;95557.44;;;16.78;58.44
74242;BME280;62599;49.146;10.426;2023-05-14T12:27:23;95544.22;;;16.80;57.45
74242;BME280;62599;49.146;10.426;2023-05-14T12:30:00;95544.06;;;17.03;55.17
74242;BME280;62599;49.146;10.426;2023-05-14T12:32:52;95542.25;;;17.22;56.69
74242;BME280;62599;49.146;10.426;2023-05-14T12:35:19;95528.13;;;17.09;55.10
74242;BME280;62599;49.146;10.426;2023-05-14T12:37:45;95547.63;;;17.15;54.09
74242;BME280;62599;49.146;10.426;2023-05-14T12:40:11;95533.81;;;17.41;55.95
74242;BME280;62599;49.146;10.426;2023-05-14T12:42:39;95532.81;;;17.08;56.20
74242;BME280;62599;49.146;10.426;2023-05-14T12:45:05;95536.78;;;17.18;56.50
74242;BME280;62599;49.146;10.426;2023-05-14T12:47:32;95525.97;;;17.29;53.74
74242;BME280;62599;49.146;10.426;2023-05-14T12:49:58;95523.31;;;16.88;56.70
74242;BME280;62599;49.146;10.426;2023-05-14T12:52:23;95523.44;;;16.24;56.62
74242;BME280;62599;49.146;10.426;2023-05-14T12:54:49;95520.19;;;15.78;59.21
74242;BME280;62599;49.146;10.426;2023-05-14T12:57:14;95522.50;;;15.23;59.49
74242;BME280;62599;49.146;10.426;2023-05-14T12:59:39;95521.09;;;14.83;61.45
74242;BME280;62599;49.146;10.426;2023-05-14T13:05:16;95522.31;;;15.38;63.31
74242;BME280;62599;49.146;10.426;2023-05-14T13:07:42;95527.28;;;15.59;60.01
74242;BME280;62599;49.146;10.426;2023-05-14T13:10:10;95523.19;;;15.69;60.54
74242;BME280;62599;49.146;10.426;2023-05-14T13:12:39;95512.41;;;15.76;59.81